sensor_id;sensor_type;location;lat;lon;timestamp;temperature;humidity
19060;DHT22;9663;48.996;8.334;2023-04-01T00:00:57;13.00;60.50
19060;DHT22;9663;48.996;8.334;2023-04-01T00:03:25;12.40;60.00
19060;DHT22;9663;48.996;8.334;2023-04-01T00:05:55;13.40;60.80
19060;DHT22;9663;48.996;8.334;2023-04-01T00:08:24;14.30;61.20
19060;DHT22;9663;48.996;8.334;2023-04-01T00:10:50;14.70;61.50
19060;DHT22;9663;48.996;8.334;2023-04-01T00:13:16;11.90;60.00
19060;DHT22;9663;48.996;8.334;2023-04-01T00:15:42;12.90;60.50
19060;DHT22;9663;48.996;8.334;2023-04-01T00:18:09;13.10;60.70
19060;DHT22;9663;48.996;8.334;2023-04-01T00:20:35;12.50;60.30
19060;DHT22;9663;48.996;8.334;2023-04-01T00:23:01;12.80;60.70
19060;DHT22;9663;48.996;8.334;2023-04-01T00:25:27;11.60;59.90
19060;DHT22;9663;48.996;8.334;2023-04-01T00:27:53;12.10;60.40
19060;DHT22;9663;48.996;8.334;2023-04-01T00:30:18;13.20;61.00
19060;DHT22;9663;48.996;8.334;2023-04-01T00:32:44;12.10;60.30
19060;DHT22;9663;48.996;8.334;2023-04-01T00:35:10;11.90;60.20
19060;DHT22;9663;48.996;8.334;2023-04-01T00:37:36;11.70;60.10
19060;DHT22;9663;48.996;8.334;2023-04-01T00:40:05;12.80;60.70
19060;DHT22;9663;48.996;8.334;2023-04-01T00:42:32;12.20;60.40
19060;DHT22;9663;48.996;8.334;2023-04-01T00:44:58;12.80;60.80
19060;DHT22;9663;48.996;8.334;2023-04-01T00:47:25;13.00;61.00
19060;DHT22;9663;48.996;8.334;2023-04-01T00:49:53;11.70;60.90
19060;DHT22;9663;48.996;8.334;2023-04-01T00:52:24;13.60;61.10
19060;DHT22;9663;48.996;8.334;2023-04-01T00:54:56;12.60;60.60
19060;DHT22;9663;48.996;8.334;2023-04-01T00:57:36;12.30;60.40
19060;DHT22;9663;48.996;8.334;2023-04-01T01:00:08;12.20;60.20
19060;DHT22;9663;48.996;8.334;2023-04-01T01:02:35;12.70;60.80
19060;DHT22;9663;48.996;8.334;2023-04-01T01:05:01;13.00;60.90
19060;DHT22;9663;48.996;8.334;2023-04-01T01:10:19;13.10;60.90
19060;DHT22;9663;48.996;8.334;2023-04-01T01:15:49;14.40;63.30
19060;DHT22;9663;48.996;8.334;2023-04-01T01:18:33;13.00;60.90
19060;DHT22;9663;48.996;8.334;2023-04-01T01:26:58;12.00;60.20
19060;DHT22;9663;48.996;8.334;2023-04-01T01:33:06;13.50;62.10
19060;DHT22;9663;48.996;8.334;2023-04-01T01:35:53;13.10;62.40
19060;DHT22;9663;48.996;8.334;2023-04-01T01:38:26;13.40;60.90
19060;DHT22;9663;48.996;8.334;2023-04-01T01:40:56;12.90;60.70
19060;DHT22;9663;48.996;8.334;2023-04-01T01:43:26;13.40;61.10
19060;DHT22;9663;48.996;8.334;2023-04-01T01:45:59;12.80;60.60
19060;DHT22;9663;48.996;8.334;2023-04-01T01:48:31;13.00;60.80
19060;DHT22;9663;48.996;8.334;2023-04-01T01:50:59;13.10;60.90
19060;DHT22;9663;48.996;8.334;2023-04-01T01:53:25;13.60;61.30
19060;DHT22;9663;48.996;8.334;2023-04-01T01:55:51;14.20;61.70
19060;DHT22;9663;48.996;8.334;2023-04-01T01:58:30;12.60;60.70
19060;DHT22;9663;48.996;8.334;2023-04-01T02:01:03;13.50;62.60
19060;DHT22;9663;48.996;8.334;2023-04-01T02:03:35;12.80;61.00
19060;DHT22;9663;48.996;8.334;2023-04-01T02:06:05;14.50;62.00
19060;DHT22;9663;48.996;8.334;2023-04-01T02:08:36;15.20;62.50
19060;DHT22;9663;48.996;8.334;2023-04-01T02:11:11;12.60;60.70
19060;DHT22;9663;48.996;8.334;2023-04-01T02:14:06;14.50;61.80
19060;DHT22;9663;48.996;8.334;2023-04-01T02:19:39;12.70;62.40
19060;DHT22;9663;48.996;8.334;2023-04-01T02:22:14;12.40;60.50
19060;DHT22;9663;48.996;8.334;2023-04-01T02:24:45;12.70;60.60
19060;DHT22;9663;48.996;8.334;2023-04-01T02:27:11;11.60;60.00
19060;DHT22;9663;48.996;8.334;2023-04-01T02:29:38;12.70;60.70
19060;DHT22;9663;48.996;8.334;2023-04-01T02:32:05;11.60;60.00
19060;DHT22;9663;48.996;8.334;2023-04-01T02:34:32;12.70;60.70
19060;DHT22;9663;48.996;8.334;2023-04-01T02:36:58;11.50;60.10
19060;DHT22;9663;48.996;8.334;2023-04-01T02:39:25;12.80;60.70
19060;DHT22;9663;48.996;8.334;2023-04-01T02:41:52;12.00;60.30
19060;DHT22;9663;48.996;8.334;2023-04-01T02:44:18;12.30;60.50
19060;DHT22;9663;48.996;8.334;2023-04-01T02:46:43;12.60;60.70
19060;DHT22;9663;48.996;8.334;2023-04-01T02:49:09;12.30;60.60
19060;DHT22;9663;48.996;8.334;2023-04-01T02:51:35;11.20;60.00
19060;DHT22;9663;48.996;8.334;2023-04-01T02:54:01;10.70;59.70
19060;DHT22;9663;48.996;8.334;2023-04-01T02:56:26;12.50;61.00
19060;DHT22;9663;48.996;8.334;2023-04-01T02:58:53;11.80;60.50
19060;DHT22;9663;48.996;8.334;2023-04-01T03:01:20;12.60;60.90
19060;DHT22;9663;48.996;8.334;2023-04-01T03:03:46;11.60;60.40
19060;DHT22;9663;48.996;8.334;2023-04-01T03:06:13;11.70;60.50
19060;DHT22;9663;48.996;8.334;2023-04-01T03:08:41;13.80;61.80
19060;DHT22;9663;48.996;8.334;2023-04-01T03:11:07;11.70;60.50
19060;DHT22;9663;48.996;8.334;2023-04-01T03:13:32;12.60;61.30
19060;DHT22;9663;48.996;8.334;2023-04-01T03:15:58;12.00;60.80
19060;DHT22;9663;48.996;8.334;2023-04-01T03:18:24;11.50;60.20
19060;DHT22;9663;48.996;8.334;2023-04-01T03:20:50;13.70;61.70
19060;DHT22;9663;48.996;8.334;2023-04-01T03:23:16;12.60;60.90
19060;DHT22;9663;48.996;8.334;2023-04-01T03:25:44;12.40;61.00
19060;DHT22;9663;48.996;8.334;2023-04-01T03:28:11;11.90;60.50
19060;DHT22;9663;48.996;8.334;2023-04-01T03:30:37;12.40;60.20
19060;DHT22;9663;48.996;8.334;2023-04-01T03:33:03;12.80;61.20
19060;DHT22;9663;48.996;8.334;2023-04-01T03:35:29;12.40;60.80
19060;DHT22;9663;48.996;8.334;2023-04-01T03:37:55;11.70;60.30
19060;DHT22;9663;48.996;8.334;2023-04-01T03:40:22;12.50;60.20
19060;DHT22;9663;48.996;8.334;2023-04-01T03:42:48;12.30;61.00
19060;DHT22;9663;48.996;8.334;2023-04-01T03:45:14;12.30;60.60
19060;DHT22;9663;48.996;8.334;2023-04-01T03:47:40;12.60;60.90
19060;DHT22;9663;48.996;8.334;2023-04-01T03:50:07;11.90;60.50
19060;DHT22;9663;48.996;8.334;2023-04-01T03:52:34;12.60;61.30
19060;DHT22;9663;48.996;8.334;2023-04-01T03:55:00;11.50;60.20
19060;DHT22;9663;48.996;8.334;2023-04-01T03:57:27;12.60;60.90
19060;DHT22;9663;48.996;8.334;2023-04-01T03:59:52;14.00;61.70
19060;DHT22;9663;48.996;8.334;2023-04-01T04:02:18;12.50;60.70
19060;DHT22;9663;48.996;8.334;2023-04-01T04:04:44;12.60;61.60
19060;DHT22;9663;48.996;8.334;2023-04-01T04:07:10;12.00;60.50
19060;DHT22;9663;48.996;8.334;2023-04-01T04:09:35;12.60;60.70
19060;DHT22;9663;48.996;8.334;2023-04-01T04:12:01;12.80;60.90
19060;DHT22;9663;48.996;8.334;2023-04-01T04:14:27;10.70;59.60
19060;DHT22;9663;48.996;8.334;2023-04-01T04:16:53;12.70;60.10
19060;DHT22;9663;48.996;8.334;2023-04-01T04:19:19;12.80;60.90
19060;DHT22;9663;48.996;8.334;2023-04-01T04:21:45;12.80;60.80
19060;DHT22;9663;48.996;8.334;2023-04-01T04:24:10;12.70;60.80
19060;DHT22;9663;48.996;8.334;2023-04-01T04:26:36;12.70;60.80
19060;DHT22;9663;48.996;8.334;2023-04-01T04:29:02;12.60;60.00
19060;DHT22;9663;48.996;8.334;2023-04-01T04:31:28;11.50;60.10
19060;DHT22;9663;48.996;8.334;2023-04-01T04:33:54;12.10;60.60
19060;DHT22;9663;48.996;8.334;2023-04-01T04:36:21;12.80;60.90
19060;DHT22;9663;48.996;8.334;2023-04-01T04:38:47;12.80;60.70
19060;DHT22;9663;48.996;8.334;2023-04-01T04:41:15;11.90;60.20
19060;DHT22;9663;48.996;8.334;2023-04-01T04:43:50;13.90;61.40
19060;DHT22;9663;48.996;8.334;2023-04-01T04:46:17;12.10;60.40
19060;DHT22;9663;48.996;8.334;2023-04-01T04:48:44;11.70;60.10
19060;DHT22;9663;48.996;8.334;2023-04-01T04:51:13;12.50;60.50
19060;DHT22;9663;48.996;8.334;2023-04-01T04:53:41;12.00;60.20
19060;DHT22;9663;48.996;8.334;2023-04-01T04:56:07;12.90;61.00
19060;DHT22;9663;48.996;8.334;2023-04-01T04:58:32;11.70;60.30
19060;DHT22;9663;48.996;8.334;2023-04-01T05:00:59;13.90;61.40
19060;DHT22;9663;48.996;8.334;2023-04-01T05:03:30;12.90;60.90
19060;DHT22;9663;48.996;8.334;2023-04-01T05:05:55;12.50;60.50
19060;DHT22;9663;48.996;8.334;2023-04-01T05:08:21;12.80;60.70
19060;DHT22;9663;48.996;8.334;2023-04-01T05:10:47;11.80;60.10
19060;DHT22;9663;48.996;8.334;2023-04-01T05:13:13;13.10;61.20
19060;DHT22;9663;48.996;8.334;2023-04-01T05:15:38;12.70;60.70
19060;DHT22;9663;48.996;8.334;2023-04-01T05:18:04;12.70;60.80
19060;DHT22;9663;48.996;8.334;2023-04-01T05:20:30;12.90;60.80
19060;DHT22;9663;48.996;8.334;2023-04-01T05:22:56;11.90;60.20
19060;DHT22;9663;48.996;8.334;2023-04-01T05:25:23;12.60;60.60
19060;DHT22;9663;48.996;8.334;2023-04-01T05:27:48;12.40;60.50
19060;DHT22;9663;48.996;8.334;2023-04-01T05:30:14;12.80;59.90
19060;DHT22;9663;48.996;8.334;2023-04-01T05:32:40;12.10;60.10
19060;DHT22;9663;48.996;8.334;2023-04-01T05:35:06;12.70;60.60
19060;DHT22;9663;48.996;8.334;2023-04-01T05:37:34;12.00;60.40
19060;DHT22;9663;48.996;8.334;2023-04-01T05:40:00;12.50;60.40
19060;DHT22;9663;48.996;8.334;2023-04-01T05:42:26;12.70;60.60
19060;DHT22;9663;48.996;8.334;2023-04-01T05:44:52;12.80;60.80
19060;DHT22;9663;48.996;8.334;2023-04-01T05:47:18;12.60;60.60
19060;DHT22;9663;48.996;8.334;2023-04-01T05:49:43;12.70;60.90
19060;DHT22;9663;48.996;8.334;2023-04-01T05:52:09;12.60;60.90
19060;DHT22;9663;48.996;8.334;2023-04-01T05:54:35;12.60;60.90
19060;DHT22;9663;48.996;8.334;2023-04-01T05:57:01;12.60;61.00
19060;DHT22;9663;48.996;8.334;2023-04-01T05:59:27;12.60;61.30
19060;DHT22;9663;48.996;8.334;2023-04-01T06:01:52;11.80;61.10
19060;DHT22;9663;48.996;8.334;2023-04-01T06:04:18;11.60;61.30
19060;DHT22;9663;48.996;8.334;2023-04-01T06:06:44;12.40;61.10
19060;DHT22;9663;48.996;8.334;2023-04-01T06:09:18;11.90;61.50
19060;DHT22;9663;48.996;8.334;2023-04-01T06:11:57;14.50;63.30
19060;DHT22;9663;48.996;8.334;2023-04-01T06:22:14;13.60;66.30
19060;DHT22;9663;48.996;8.334;2023-04-01T06:36:57;14.20;66.30
19060;DHT22;9663;48.996;8.334;2023-04-01T06:42:33;12.10;65.50
19060;DHT22;9663;48.996;8.334;2023-04-01T06:45:45;12.60;62.90
19060;DHT22;9663;48.996;8.334;2023-04-01T06:54:13;13.30;63.20
19060;DHT22;9663;48.996;8.334;2023-04-01T06:56:45;11.90;65.10
19060;DHT22;9663;48.996;8.334;2023-04-01T06:59:21;10.80;61.60
19060;DHT22;9663;48.996;8.334;2023-04-01T07:01:55;12.30;62.80
19060;DHT22;9663;48.996;8.334;2023-04-01T07:04:32;12.20;62.60
19060;DHT22;9663;48.996;8.334;2023-04-01T07:10:15;11.80;65.60
19060;DHT22;9663;48.996;8.334;2023-04-01T07:12:52;12.00;62.80
19060;DHT22;9663;48.996;8.334;2023-04-01T07:15:25;12.90;63.20
19060;DHT22;9663;48.996;8.334;2023-04-01T07:18:00;12.20;62.70
19060;DHT22;9663;48.996;8.334;2023-04-01T07:20:32;13.20;63.30
19060;DHT22;9663;48.996;8.334;2023-04-01T07:23:10;10.90;62.30
19060;DHT22;9663;48.996;8.334;2023-04-01T07:25:47;13.70;63.80
19060;DHT22;9663;48.996;8.334;2023-04-01T07:28:39;12.10;62.80
19060;DHT22;9663;48.996;8.334;2023-04-01T07:33:47;12.40;63.90
19060;DHT22;9663;48.996;8.334;2023-04-01T07:52:59;13.50;68.00
19060;DHT22;9663;48.996;8.334;2023-04-01T07:56:11;12.70;64.30
19060;DHT22;9663;48.996;8.334;2023-04-01T08:07:23;13.10;68.10
19060;DHT22;9663;48.996;8.334;2023-04-01T08:10:30;12.30;63.90
19060;DHT22;9663;48.996;8.334;2023-04-01T08:16:03;11.10;67.00
19060;DHT22;9663;48.996;8.334;2023-04-01T08:23:47;12.80;64.10
19060;DHT22;9663;48.996;8.334;2023-04-01T08:26:38;10.30;62.80
19060;DHT22;9663;48.996;8.334;2023-04-01T08:32:09;13.00;64.50
19060;DHT22;9663;48.996;8.334;2023-04-01T08:34:45;12.90;67.60
19060;DHT22;9663;48.996;8.334;2023-04-01T08:37:26;13.00;64.10
19060;DHT22;9663;48.996;8.334;2023-04-01T08:40:02;11.80;63.50
19060;DHT22;9663;48.996;8.334;2023-04-01T08:45:40;13.60;66.90
19060;DHT22;9663;48.996;8.334;2023-04-01T08:57:17;13.80;65.80
19060;DHT22;9663;48.996;8.334;2023-04-01T09:14:45;16.20;66.10
19060;DHT22;9663;48.996;8.334;2023-04-01T09:29:56;13.30;63.50
19060;DHT22;9663;48.996;8.334;2023-04-01T09:45:31;13.20;64.10
19060;DHT22;9663;48.996;8.334;2023-04-01T09:48:14;13.00;66.00
19060;DHT22;9663;48.996;8.334;2023-04-01T09:51:15;13.40;64.20
19060;DHT22;9663;48.996;8.334;2023-04-01T09:54:04;14.50;64.60
19060;DHT22;9663;48.996;8.334;2023-04-01T10:05:59;14.10;67.70
19060;DHT22;9663;48.996;8.334;2023-04-01T10:09:28;12.20;66.00
19060;DHT22;9663;48.996;8.334;2023-04-01T10:15:19;11.50;65.40
19060;DHT22;9663;48.996;8.334;2023-04-01T10:21:35;13.30;64.20
19060;DHT22;9663;48.996;8.334;2023-04-01T10:24:22;12.80;64.60
19060;DHT22;9663;48.996;8.334;2023-04-01T10:33:45;13.80;68.20
19060;DHT22;9663;48.996;8.334;2023-04-01T10:36:33;13.20;65.20
19060;DHT22;9663;48.996;8.334;2023-04-01T10:39:20;11.90;66.60
19060;DHT22;9663;48.996;8.334;2023-04-01T10:42:38;13.10;64.40
19060;DHT22;9663;48.996;8.334;2023-04-01T10:56:59;12.50;66.50
19060;DHT22;9663;48.996;8.334;2023-04-01T11:09:40;14.00;65.50
19060;DHT22;9663;48.996;8.334;2023-04-01T11:24:03;12.20;66.70
19060;DHT22;9663;48.996;8.334;2023-04-01T11:39:17;15.40;67.90
19060;DHT22;9663;48.996;8.334;2023-04-01T11:42:04;13.40;64.40
19060;DHT22;9663;48.996;8.334;2023-04-01T11:44:34;13.40;64.40
19060;DHT22;9663;48.996;8.334;2023-04-01T11:47:29;13.00;64.40
19060;DHT22;9663;48.996;8.334;2023-04-01T11:53:29;14.00;68.30
19060;DHT22;9663;48.996;8.334;2023-04-01T11:59:44;13.50;64.90
19060;DHT22;9663;48.996;8.334;2023-04-01T12:13:40;12.50;64.60
19060;DHT22;9663;48.996;8.334;2023-04-01T12:22:23;12.30;66.80
19060;DHT22;9663;48.996;8.334;2023-04-01T12:40:01;11.00;64.90
19060;DHT22;9663;48.996;8.334;2023-04-01T12:54:09;12.50;67.20
19060;DHT22;9663;48.996;8.334;2023-04-01T12:57:14;11.90;67.70
19060;DHT22;9663;48.996;8.334;2023-04-01T13:03:30;14.80;69.50
19060;DHT22;9663;48.996;8.334;2023-04-01T13:18:43;14.40;68.20
19060;DHT22;9663;48.996;8.334;2023-04-01T13:21:20;13.20;68.00
19060;DHT22;9663;48.996;8.334;2023-04-01T13:24:09;12.20;67.40
19060;DHT22;9663;48.996;8.334;2023-04-01T13:27:44;14.10;68.40
19060;DHT22;9663;48.996;8.334;2023-04-01T13:36:19;13.50;64.50
19060;DHT22;9663;48.996;8.334;2023-04-01T13:38:59;13.00;65.20
19060;DHT22;9663;48.996;8.334;2023-04-01T13:42:02;13.90;67.00
19060;DHT22;9663;48.996;8.334;2023-04-01T13:45:08;14.70;67.70
19060;DHT22;9663;48.996;8.334;2023-04-01T13:54:15;14.10;66.70
19060;DHT22;9663;48.996;8.334;2023-04-01T14:10:10;15.30;69.40
19060;DHT22;9663;48.996;8.334;2023-04-01T14:15:52;12.00;67.40
19060;DHT22;9663;48.996;8.334;2023-04-01T14:18:46;12.70;65.70
19060;DHT22;9663;48.996;8.334;2023-04-01T14:21:23;12.50;67.50
19060;DHT22;9663;48.996;8.334;2023-04-01T14:29:44;11.60;67.70
19060;DHT22;9663;48.996;8.334;2023-04-01T14:35:24;12.60;65.40
19060;DHT22;9663;48.996;8.334;2023-04-01T14:38:35;14.30;68.20
19060;DHT22;9663;48.996;8.334;2023-04-01T14:44:51;12.70;67.00
19060;DHT22;9663;48.996;8.334;2023-04-01T14:47:53;13.10;65.80
19060;DHT22;9663;48.996;8.334;2023-04-01T14:50:29;13.10;65.90
19060;DHT22;9663;48.996;8.334;2023-04-01T14:53:31;13.70;68.40
19060;DHT22;9663;48.996;8.334;2023-04-01T14:56:04;13.10;66.10
19060;DHT22;9663;48.996;8.334;2023-04-01T14:58:57;13.00;67.40
19060;DHT22;9663;48.996;8.334;2023-04-01T15:01:32;12.30;68.20
19060;DHT22;9663;48.996;8.334;2023-04-01T15:22:20;13.90;66.40
19060;DHT22;9663;48.996;8.334;2023-04-01T15:33:47;12.60;65.90
19060;DHT22;9663;48.996;8.334;2023-04-01T15:39:13;15.90;69.70
19060;DHT22;9663;48.996;8.334;2023-04-01T15:45:05;13.80;68.30
19060;DHT22;9663;48.996;8.334;2023-04-01T15:47:46;11.70;64.70
19060;DHT22;9663;48.996;8.334;2023-04-01T15:50:37;12.90;65.10
19060;DHT22;9663;48.996;8.334;2023-04-01T15:53:16;15.20;68.90
19060;DHT22;9663;48.996;8.334;2023-04-01T16:02:37;11.20;66.90
19060;DHT22;9663;48.996;8.334;2023-04-01T16:14:37;12.00;67.70
19060;DHT22;9663;48.996;8.334;2023-04-01T16:23:49;13.50;69.00
19060;DHT22;9663;48.996;8.334;2023-04-01T16:32:14;11.30;67.60
19060;DHT22;9663;48.996;8.334;2023-04-01T16:38:11;13.30;68.10
19060;DHT22;9663;48.996;8.334;2023-04-01T16:40:47;13.50;66.10
19060;DHT22;9663;48.996;8.334;2023-04-01T16:43:25;13.40;65.50
19060;DHT22;9663;48.996;8.334;2023-04-01T16:46:26;12.30;68.10
19060;DHT22;9663;48.996;8.334;2023-04-01T16:49:13;14.80;69.80
19060;DHT22;9663;48.996;8.334;2023-04-01T17:03:02;13.20;66.40
19060;DHT22;9663;48.996;8.334;2023-04-01T17:15:12;11.60;68.20
19060;DHT22;9663;48.996;8.334;2023-04-01T17:18:02;11.70;65.40
19060;DHT22;9663;48.996;8.334;2023-04-01T17:20:36;13.00;69.10
19060;DHT22;9663;48.996;8.334;2023-04-01T17:23:20;13.20;66.10
19060;DHT22;9663;48.996;8.334;2023-04-01T17:28:56;13.10;69.20
19060;DHT22;9663;48.996;8.334;2023-04-01T17:31:37;11.50;65.40
19060;DHT22;9663;48.996;8.334;2023-04-01T17:39:46;12.90;68.50
19060;DHT22;9663;48.996;8.334;2023-04-01T17:51:24;13.00;68.90
19060;DHT22;9663;48.996;8.334;2023-04-01T17:59:54;13.40;69.00
19060;DHT22;9663;48.996;8.334;2023-04-01T18:11:13;13.00;66.80
19060;DHT22;9663;48.996;8.334;2023-04-01T18:25:21;12.50;65.90
19060;DHT22;9663;48.996;8.334;2023-04-01T18:30:54;14.60;70.70
19060;DHT22;9663;48.996;8.334;2023-04-01T18:36:15;12.10;68.10
19060;DHT22;9663;48.996;8.334;2023-04-01T18:39:12;11.70;68.90
19060;DHT22;9663;48.996;8.334;2023-04-01T18:42:29;10.90;66.00
19060;DHT22;9663;48.996;8.334;2023-04-01T18:45:43;11.10;69.10
19060;DHT22;9663;48.996;8.334;2023-04-01T18:51:14;13.40;70.70
19060;DHT22;9663;48.996;8.334;2023-04-01T18:53:58;12.10;66.80
19060;DHT22;9663;48.996;8.334;2023-04-01T18:56:34;13.40;69.90
19060;DHT22;9663;48.996;8.334;2023-04-01T18:59:10;13.50;68.40
19060;DHT22;9663;48.996;8.334;2023-04-01T19:01:52;11.80;67.10
19060;DHT22;9663;48.996;8.334;2023-04-01T19:04:39;12.20;69.20
19060;DHT22;9663;48.996;8.334;2023-04-01T19:19:34;11.40;69.90
19060;DHT22;9663;48.996;8.334;2023-04-01T19:25:22;9.90;69.30
19060;DHT22;9663;48.996;8.334;2023-04-01T19:31:22;12.50;71.40
19060;DHT22;9663;48.996;8.334;2023-04-01T19:37:11;11.70;67.20
19060;DHT22;9663;48.996;8.334;2023-04-01T19:49:18;12.00;68.90
19060;DHT22;9663;48.996;8.334;2023-04-01T19:52:00;14.10;72.30
19060;DHT22;9663;48.996;8.334;2023-04-01T20:00:05;14.30;69.50
19060;DHT22;9663;48.996;8.334;2023-04-01T20:16:18;12.20;70.00
19060;DHT22;9663;48.996;8.334;2023-04-01T20:18:55;12.30;67.60
19060;DHT22;9663;48.996;8.334;2023-04-01T20:21:37;11.80;67.30
19060;DHT22;9663;48.996;8.334;2023-04-01T20:24:25;12.20;67.60
19060;DHT22;9663;48.996;8.334;2023-04-01T20:27:08;13.50;68.60
19060;DHT22;9663;48.996;8.334;2023-04-01T20:44:11;13.00;67.80
19060;DHT22;9663;48.996;8.334;2023-04-01T20:53:29;12.20;70.60
19060;DHT22;9663;48.996;8.334;2023-04-01T20:56:34;12.70;70.20
19060;DHT22;9663;48.996;8.334;2023-04-01T21:01:49;11.90;68.20
19060;DHT22;9663;48.996;8.334;2023-04-01T21:07:53;12.00;68.40
19060;DHT22;9663;48.996;8.334;2023-04-01T21:10:43;13.30;69.80
19060;DHT22;9663;48.996;8.334;2023-04-01T21:13:48;12.20;68.00
19060;DHT22;9663;48.996;8.334;2023-04-01T21:16:41;12.40;69.60
19060;DHT22;9663;48.996;8.334;2023-04-01T21:19:43;13.70;68.90
19060;DHT22;9663;48.996;8.334;2023-04-01T21:25:14;12.20;67.90
19060;DHT22;9663;48.996;8.334;2023-04-01T21:27:59;12.80;68.50
19060;DHT22;9663;48.996;8.334;2023-04-01T21:33:59;13.40;70.30
19060;DHT22;9663;48.996;8.334;2023-04-01T21:36:45;12.60;67.50
19060;DHT22;9663;48.996;8.334;2023-04-01T21:40:13;12.30;68.00
19060;DHT22;9663;48.996;8.334;2023-04-01T21:45:46;12.50;69.50
19060;DHT22;9663;48.996;8.334;2023-04-01T21:57:19;12.30;67.50
19060;DHT22;9663;48.996;8.334;2023-04-01T22:06:00;12.00;69.30
19060;DHT22;9663;48.996;8.334;2023-04-01T22:08:41;13.30;67.80
19060;DHT22;9663;48.996;8.334;2023-04-01T22:17:54;14.00;70.30
19060;DHT22;9663;48.996;8.334;2023-04-01T22:23:32;11.00;68.70
19060;DHT22;9663;48.996;8.334;2023-04-01T22:26:38;12.50;70.00
19060;DHT22;9663;48.996;8.334;2023-04-01T22:29:30;12.20;69.90
19060;DHT22;9663;48.996;8.334;2023-04-01T22:32:21;11.80;67.00
19060;DHT22;9663;48.996;8.334;2023-04-01T22:34:56;13.70;68.00
19060;DHT22;9663;48.996;8.334;2023-04-01T22:43:39;10.80;68.10
19060;DHT22;9663;48.996;8.334;2023-04-01T22:49:28;12.30;68.40
19060;DHT22;9663;48.996;8.334;2023-04-01T22:55:10;11.50;69.20
19060;DHT22;9663;48.996;8.334;2023-04-01T23:00:38;12.30;68.60
19060;DHT22;9663;48.996;8.334;2023-04-01T23:03:32;12.10;69.70
19060;DHT22;9663;48.996;8.334;2023-04-01T23:06:04;12.20;67.40
19060;DHT22;9663;48.996;8.334;2023-04-01T23:20:47;13.80;70.80
19060;DHT22;9663;48.996;8.334;2023-04-01T23:26:41;13.30;67.90
19060;DHT22;9663;48.996;8.334;2023-04-01T23:29:18;12.30;70.00
19060;DHT22;9663;48.996;8.334;2023-04-01T23:31:47;12.40;67.50
19060;DHT22;9663;48.996;8.334;2023-04-01T23:36:45;12.10;67.30
19060;DHT22;9663;48.996;8.334;2023-04-01T23:45:15;11.60;69.90
19060;DHT22;9663;48.996;8.334;2023-04-01T23:47:46;12.10;67.30
19060;DHT22;9663;48.996;8.334;2023-04-01T23:50:21;13.30;68.10
19060;DHT22;9663;48.996;8.334;2023-04-01T23:53:04;12.80;69.20
19060;DHT22;9663;48.996;8.334;2023-04-01T23:58:23;12.00;67.40
